Time;durP1;ratioP1;P1;durP2;ratioP2;P2;SDS_P1;SDS_P2;PMS_P1;PMS_P2;Temp;Humidity;BMP_temperature;BMP_pressure;BME280_temperature;BME280_humidity;BME280_pressure;Samples;Min_cycle;Max_cycle;Signal;HPM_P1;HPM_P2
2023/02/24 00:01:58;;;;;;;;;;;23.20;86.20;;;;;;1805833;78;20523;-76
2023/02/24 00:04:24;;;;;;;;;;;23.30;85.90;;;;;;1799346;79;20300;-74
2023/02/24 00:06:54;;;;;;;;;;;23.30;86.20;;;;;;1797686;78;20189;-75
2023/02/24 00:09:28;;;;;;;;;;;23.30;86.10;;;;;;1798106;79;20196;-75
2023/02/24 00:12:02;;;;;;;;;;;23.40;86.40;;;;;;1791490;79;20292;-75
2023/02/24 00:14:33;;;;;;;;;;;23.40;86.30;;;;;;1799216;79;20190;-74
2023/02/24 00:17:04;;;;;;;;;;;23.40;86.00;;;;;;1797040;79;20160;-74
2023/02/24 00:19:35;;;;;;;;;;;23.40;86.40;;;;;;1808162;79;20314;-75
2023/02/24 00:22:06;;;;;;;;;;;23.40;86.30;;;;;;1806267;79;20205;-74
2023/02/24 00:24:36;;;;;;;;;;;23.50;86.50;;;;;;1797164;78;20581;-74
2023/02/24 00:27:06;;;;;;;;;;;23.50;86.30;;;;;;1808479;79;20208;-74
2023/02/24 00:29:40;;;;;;;;;;;23.40;86.40;;;;;;1805089;79;20244;-76
2023/02/24 00:32:11;;;;;;;;;;;23.50;86.90;;;;;;1802743;79;20200;-75
2023/02/24 00:34:39;;;;;;;;;;;23.50;86.20;;;;;;1817802;78;20230;-74
2023/02/24 00:37:09;;;;;;;;;;;23.50;85.90;;;;;;1809228;78;20270;-74
2023/02/24 00:39:40;;;;;;;;;;;23.50;85.80;;;;;;1778866;81;20399;-75
2023/02/24 00:42:13;;;;;;;;;;;23.50;85.80;;;;;;1780351;81;20136;-73
2023/02/24 00:44:47;;;;;;;;;;;23.60;85.70;;;;;;1795045;78;20231;-75
2023/02/24 00:47:17;;;;;;;;;;;23.60;85.30;;;;;;1799898;79;20208;-74
2023/02/24 00:49:48;;;;;;;;;;;23.70;85.10;;;;;;1804995;79;20595;-74
2023/02/24 00:52:19;;;;;;;;;;;23.70;84.40;;;;;;1805294;78;20173;-75
2023/02/24 00:54:50;;;;;;;;;;;23.70;83.60;;;;;;1807434;78;20548;-76
2023/02/24 00:57:20;;;;;;;;;;;23.70;83.60;;;;;;1804208;79;20518;-74
2023/02/24 00:59:51;;;;;;;;;;;23.80;82.80;;;;;;1801101;79;20222;-75
2023/02/24 01:02:21;;;;;;;;;;;23.80;81.80;;;;;;1805282;79;20215;-75
2023/02/24 01:04:51;;;;;;;;;;;23.80;81.40;;;;;;1804045;78;20178;-72
2023/02/24 01:07:21;;;;;;;;;;;23.80;81.20;;;;;;1811750;78;20283;-74
2023/02/24 01:09:53;;;;;;;;;;;23.90;81.10;;;;;;1803242;78;20252;-73
2023/02/24 01:12:48;;;;;;;;;;;23.90;80.70;;;;;;1810095;78;20252;-76
2023/02/24 01:15:10;;;;;;;;;;;24.00;80.70;;;;;;1806015;78;20352;-74
2023/02/24 01:17:41;;;;;;;;;;;24.00;80.50;;;;;;1812976;78;20349;-74
2023/02/24 01:20:17;;;;;;;;;;;24.00;80.50;;;;;;1810093;79;20397;-75
2023/02/24 01:22:57;;;;;;;;;;;24.00;80.30;;;;;;1805645;78;20203;-73
2023/02/24 01:25:23;;;;;;;;;;;24.10;80.40;;;;;;1801875;78;20274;-73
2023/02/24 01:27:55;;;;;;;;;;;24.10;80.20;;;;;;1803566;78;20609;-75
2023/02/24 01:30:24;;;;;;;;;;;24.20;80.40;;;;;;1801466;78;20502;-74
2023/02/24 01:32:56;;;;;;;;;;;24.20;80.50;;;;;;1807995;78;20251;-75
2023/02/24 01:35:39;;;;;;;;;;;24.30;80.40;;;;;;1768858;79;20556;-76
2023/02/24 01:38:06;;;;;;;;;;;24.30;80.00;;;;;;1759281;81;20248;-75
2023/02/24 01:40:36;;;;;;;;;;;24.30;79.80;;;;;;1772565;79;20447;-74
2023/02/24 01:43:07;;;;;;;;;;;24.30;79.80;;;;;;1771780;79;20249;-74
2023/02/24 01:45:40;;;;;;;;;;;24.40;79.60;;;;;;1767290;81;20499;-75
2023/02/24 01:48:10;;;;;;;;;;;24.50;78.90;;;;;;1767548;80;20352;-76
2023/02/24 01:50:40;;;;;;;;;;;24.50;78.90;;;;;;1788737;80;20262;-74
2023/02/24 01:53:10;;;;;;;;;;;24.50;79.10;;;;;;1772189;80;20234;-75
2023/02/24 01:55:43;;;;;;;;;;;24.60;79.10;;;;;;1769681;80;20233;-76
2023/02/24 01:58:15;;;;;;;;;;;24.60;78.80;;;;;;1770897;80;20325;-74
2023/02/24 02:00:46;;;;;;;;;;;24.60;78.80;;;;;;1783596;80;20205;-76
2023/02/24 02:03:17;;;;;;;;;;;24.70;78.60;;;;;;1774913;79;20440;-74
2023/02/24 02:05:47;;;;;;;;;;;24.70;78.60;;;;;;1771162;81;20176;-76
2023/02/24 02:08:18;;;;;;;;;;;24.80;78.10;;;;;;1768878;81;20190;-77
2023/02/24 02:10:48;;;;;;;;;;;24.80;77.80;;;;;;1765522;81;20249;-74
2023/02/24 02:13:23;;;;;;;;;;;24.90;77.60;;;;;;1770336;79;20217;-75
2023/02/24 02:16:09;;;;;;;;;;;24.90;77.70;;;;;;1785747;79;20653;-76
2023/02/24 02:18:45;;;;;;;;;;;25.00;77.30;;;;;;1740420;81;20282;-77
2023/02/24 02:21:35;;;;;;;;;;;25.00;77.30;;;;;;1721549;81;20619;-74
2023/02/24 02:24:18;;;;;;;;;;;25.10;77.40;;;;;;1734955;81;20300;-74
2023/02/24 02:26:56;;;;;;;;;;;25.10;77.40;;;;;;1748466;82;20183;-74
2023/02/24 02:29:46;;;;;;;;;;;25.20;77.40;;;;;;1792803;79;20195;-76
2023/02/24 02:32:38;;;;;;;;;;;25.20;77.00;;;;;;1785162;78;20279;-76
2023/02/24 02:35:23;;;;;;;;;;;25.30;76.70;;;;;;1788839;78;20201;-73
2023/02/24 02:37:57;;;;;;;;;;;25.40;76.60;;;;;;1812895;78;20184;-75
2023/02/24 02:40:36;;;;;;;;;;;25.50;76.10;;;;;;1778176;80;20181;-75
2023/02/24 02:43:24;;;;;;;;;;;25.60;75.80;;;;;;1806595;79;20269;-76
2023/02/24 02:45:55;;;;;;;;;;;25.60;74.20;;;;;;1808649;78;20167;-75
2023/02/24 02:48:46;;;;;;;;;;;25.80;73.70;;;;;;1812771;79;20199;-76
2023/02/24 02:51:17;;;;;;;;;;;25.90;73.40;;;;;;1819078;78;20168;-74
2023/02/24 02:54:03;;;;;;;;;;;25.90;72.90;;;;;;1809565;78;20233;-76
2023/02/24 02:56:37;;;;;;;;;;;26.00;73.20;;;;;;1807409;78;20221;-76
2023/02/24 02:59:11;;;;;;;;;;;26.00;73.20;;;;;;1815837;78;20203;-75
2023/02/24 03:01:42;;;;;;;;;;;26.20;73.50;;;;;;1811070;78;20459;-75
2023/02/24 03:04:15;;;;;;;;;;;26.20;73.40;;;;;;1808405;78;20207;-74
2023/02/24 03:06:46;;;;;;;;;;;26.30;72.70;;;;;;1812778;78;20215;-77
2023/02/24 03:12:13;;;;;;;;;;;26.50;72.40;;;;;;1803364;78;20180;-76
2023/02/24 03:14:45;;;;;;;;;;;26.60;72.90;;;;;;1770715;80;20271;-75
2023/02/24 03:17:22;;;;;;;;;;;26.80;72.90;;;;;;1773542;79;20480;-77
2023/02/24 03:19:59;;;;;;;;;;;26.90;72.70;;;;;;1763689;81;20134;-75
2023/02/24 03:22:26;;;;;;;;;;;27.00;72.60;;;;;;1800665;78;20680;-76
2023/02/24 03:24:57;;;;;;;;;;;27.10;72.60;;;;;;1805586;79;20424;-76
2023/02/24 03:27:38;;;;;;;;;;;27.10;72.40;;;;;;1774819;79;20268;-74
2023/02/24 03:30:14;;;;;;;;;;;27.20;72.30;;;;;;1794376;78;20192;-77
2023/02/24 03:32:54;;;;;;;;;;;27.30;72.20;;;;;;1809215;78;20455;-75
2023/02/24 03:35:28;;;;;;;;;;;27.40;72.20;;;;;;1798208;78;20494;-75
2023/02/24 03:37:59;;;;;;;;;;;27.50;71.30;;;;;;1790759;79;20183;-75
2023/02/24 03:40:32;;;;;;;;;;;27.60;71.90;;;;;;1809564;77;20468;-74
2023/02/24 03:43:04;;;;;;;;;;;27.70;71.50;;;;;;1829286;78;20124;-76
2023/02/24 03:45:33;;;;;;;;;;;;;;;;;;1820495;77;20187;-76
2023/02/24 03:48:08;;;;;;;;;;;27.90;70.00;;;;;;1820941;77;20484;-74
2023/02/24 03:50:39;;;;;;;;;;;28.00;70.30;;;;;;1805069;78;20189;-76
2023/02/24 03:53:22;;;;;;;;;;;28.10;70.00;;;;;;1817991;78;20171;-76
2023/02/24 03:55:57;;;;;;;;;;;28.10;68.70;;;;;;1819970;78;20578;-76
2023/02/24 03:58:45;;;;;;;;;;;28.30;68.30;;;;;;1802370;78;20441;-75
2023/02/24 04:01:34;;;;;;;;;;;28.40;68.60;;;;;;1817432;77;20377;-76
2023/02/24 04:04:06;;;;;;;;;;;28.50;68.20;;;;;;1820095;77;20276;-76
2023/02/24 04:06:48;;;;;;;;;;;28.60;68.40;;;;;;1830512;78;20128;-76
2023/02/24 04:09:25;;;;;;;;;;;28.70;65.90;;;;;;1818163;77;20214;-75
2023/02/24 04:11:59;;;;;;;;;;;28.90;66.00;;;;;;1804055;78;20206;-76
2023/02/24 04:14:40;;;;;;;;;;;29.00;66.50;;;;;;1805119;78;20175;-77
2023/02/24 04:17:29;;;;;;;;;;;29.10;65.30;;;;;;1827947;78;20155;-75
2023/02/24 04:20:15;;;;;;;;;;;29.10;67.40;;;;;;1863762;77;20112;-77
2023/02/24 04:22:51;;;;;;;;;;;29.20;67.10;;;;;;1860557;76;20189;-78
2023/02/24 04:25:26;;;;;;;;;;;29.30;66.30;;;;;;1868239;76;20342;-76
2023/02/24 04:28:02;;;;;;;;;;;29.40;64.30;;;;;;1867419;76;20571;-76
2023/02/24 04:30:33;;;;;;;;;;;29.40;64.80;;;;;;1861475;76;20183;-75
2023/02/24 04:33:03;;;;;;;;;;;29.50;66.30;;;;;;1854811;76;20330;-76
2023/02/24 04:35:34;;;;;;;;;;;29.60;66.20;;;;;;1872713;75;20314;-76
2023/02/24 04:38:07;;;;;;;;;;;29.70;64.00;;;;;;1885283;76;20153;-77
2023/02/24 04:40:39;;;;;;;;;;;29.80;64.30;;;;;;1867979;75;20141;-77
2023/02/24 04:43:09;;;;;;;;;;;29.90;64.80;;;;;;1890434;76;20155;-76
2023/02/24 04:45:40;;;;;;;;;;;30.00;63.90;;;;;;1876041;75;20255;-74
2023/02/24 04:48:15;;;;;;;;;;;30.00;62.60;;;;;;1875472;76;20179;-76
2023/02/24 04:50:42;;;;;;;;;;;30.10;63.80;;;;;;1876422;75;20175;-75
2023/02/24 04:53:14;;;;;;;;;;;30.10;63.00;;;;;;1874579;75;20175;-74
2023/02/24 04:55:50;;;;;;;;;;;30.20;66.10;;;;;;1867344;75;20611;-75
2023/02/24 04:58:20;;;;;;;;;;;30.20;63.30;;;;;;1870771;75;20212;-76
2023/02/24 05:00:56;;;;;;;;;;;30.30;64.20;;;;;;1873345;76;20730;-74
2023/02/24 05:03:22;;;;;;;;;;;;;;;;;;1889630;75;20165;-74
2023/02/24 05:05:55;;;;;;;;;;;30.40;60.60;;;;;;1880738;75;20239;-75
2023/02/24 05:08:24;;;;;;;;;;;30.50;62.90;;;;;;1890305;75;20163;-75
2023/02/24 05:10:55;;;;;;;;;;;30.50;62.40;;;;;;1882851;75;20238;-76
2023/02/24 05:13:26;;;;;;;;;;;30.70;62.40;;;;;;1874960;75;20191;-76
2023/02/24 05:15:57;;;;;;;;;;;30.70;60.30;;;;;;1883428;75;20180;-75
2023/02/24 05:18:35;;;;;;;;;;;30.90;61.00;;;;;;1834723;77;20225;-75
2023/02/24 05:23:53;;;;;;;;;;;31.00;61.60;;;;;;1840040;76;20402;-78
2023/02/24 05:26:25;;;;;;;;;;;31.10;61.30;;;;;;1843328;76;20215;-84
2023/02/24 05:28:58;;;;;;;;;;;31.20;60.90;;;;;;1839324;76;20206;-85
2023/02/24 05:31:28;;;;;;;;;;;31.20;59.50;;;;;;1806570;78;20149;-84
2023/02/24 05:34:01;;;;;;;;;;;31.30;60.20;;;;;;1840558;77;20411;-85
2023/02/24 05:36:33;;;;;;;;;;;31.30;59.30;;;;;;1812491;78;20528;-85
2023/02/24 05:39:06;;;;;;;;;;;31.30;61.40;;;;;;1831432;77;20478;-84
2023/02/24 05:41:37;;;;;;;;;;;31.40;60.00;;;;;;1796552;78;20214;-85
2023/02/24 05:44:27;;;;;;;;;;;31.40;59.70;;;;;;1818984;78;20133;-84
2023/02/24 05:47:04;;;;;;;;;;;31.40;59.10;;;;;;1808613;77;20346;-83
2023/02/24 05:49:37;;;;;;;;;;;31.50;58.40;;;;;;1827497;77;20151;-84
2023/02/24 05:52:08;;;;;;;;;;;31.50;58.40;;;;;;1827855;77;20285;-82
2023/02/24 05:54:39;;;;;;;;;;;31.50;59.30;;;;;;1804182;79;20203;-82
2023/02/24 05:57:14;;;;;;;;;;;31.60;58.70;;;;;;1816543;78;20195;-83
2023/02/24 05:59:44;;;;;;;;;;;31.70;58.30;;;;;;1836996;77;20182;-83
2023/02/24 06:02:14;;;;;;;;;;;31.70;58.20;;;;;;1837259;77;20266;-82
2023/02/24 06:05:07;;;;;;;;;;;31.70;56.40;;;;;;1828202;77;20127;-81
2023/02/24 06:07:18;;;;;;;;;;;31.80;58.30;;;;;;1805334;78;20292;-80
2023/02/24 06:09:52;;;;;;;;;;;31.90;57.50;;;;;;1801432;78;20156;-83
2023/02/24 06:12:23;;;;;;;;;;;31.90;56.80;;;;;;1786853;80;20137;-82
2023/02/24 06:14:52;;;;;;;;;;;31.90;55.40;;;;;;1824193;78;20122;-83
2023/02/24 06:17:23;;;;;;;;;;;31.90;57.20;;;;;;1794836;79;20294;-82
2023/02/24 06:19:53;;;;;;;;;;;31.90;56.40;;;;;;1824536;77;20269;-82
2023/02/24 06:22:24;;;;;;;;;;;32.00;56.40;;;;;;1842051;77;20271;-83
2023/02/24 06:27:51;;;;;;;;;;;32.10;57.50;;;;;;1829629;77;20224;-81
2023/02/24 06:30:20;;;;;;;;;;;32.10;55.70;;;;;;1837323;77;20257;-82
2023/02/24 06:32:50;;;;;;;;;;;32.10;55.80;;;;;;1842303;77;20218;-82
2023/02/24 06:35:20;;;;;;;;;;;32.10;56.50;;;;;;1845717;77;20255;-83
2023/02/24 06:38:10;;;;;;;;;;;32.20;57.50;;;;;;1840323;77;20506;-81
2023/02/24 06:40:49;;;;;;;;;;;32.20;57.50;;;;;;1836018;76;20138;-81
2023/02/24 06:43:14;;;;;;;;;;;32.20;55.40;;;;;;1840239;77;20126;-82
2023/02/24 06:45:44;;;;;;;;;;;32.20;56.50;;;;;;1828090;78;20211;-82
2023/02/24 06:48:14;;;;;;;;;;;32.20;56.70;;;;;;1812978;78;20201;-81
2023/02/24 06:50:44;;;;;;;;;;;32.20;56.80;;;;;;1811892;79;20129;-83
2023/02/24 06:53:20;;;;;;;;;;;32.20;56.50;;;;;;1822578;78;20205;-83
2023/02/24 06:55:50;;;;;;;;;;;32.10;55.40;;;;;;1843622;76;20167;-82
2023/02/24 06:58:26;;;;;;;;;;;32.10;56.20;;;;;;1834256;78;20235;-82
2023/02/24 07:01:03;;;;;;;;;;;32.10;55.80;;;;;;1803834;79;20245;-82
2023/02/24 07:03:39;;;;;;;;;;;32.10;55.80;;;;;;1832486;77;20277;-82
2023/02/24 07:06:20;;;;;;;;;;;32.20;57.60;;;;;;1835956;78;20152;-81
2023/02/24 07:08:47;;;;;;;;;;;32.20;55.80;;;;;;1833160;77;20210;-82
2023/02/24 07:11:36;;;;;;;;;;;32.30;54.60;;;;;;1817321;78;20195;-82
2023/02/24 07:14:06;;;;;;;;;;;32.30;54.10;;;;;;1850924;77;20215;-81
2023/02/24 07:16:40;;;;;;;;;;;32.30;54.50;;;;;;1838785;77;20613;-81
2023/02/24 07:22:23;;;;;;;;;;;32.40;55.50;;;;;;1858233;76;20213;-83
2023/02/24 07:25:01;;;;;;;;;;;32.40;53.00;;;;;;1804490;78;20191;-82
2023/02/24 07:27:31;;;;;;;;;;;32.40;54.60;;;;;;1800684;78;20186;-81
2023/02/24 07:30:05;;;;;;;;;;;32.40;55.10;;;;;;1814563;78;20185;-82
2023/02/24 07:32:32;;;;;;;;;;;32.30;52.50;;;;;;1840555;77;20132;-81
2023/02/24 07:35:05;;;;;;;;;;;32.30;53.70;;;;;;1841269;77;20203;-82
2023/02/24 07:37:38;;;;;;;;;;;32.30;53.70;;;;;;1824648;77;20150;-81
2023/02/24 07:40:10;;;;;;;;;;;32.20;55.00;;;;;;1824491;77;20170;-82
2023/02/24 07:42:41;;;;;;;;;;;32.30;55.40;;;;;;1791409;79;20211;-81
2023/02/24 07:45:12;;;;;;;;;;;32.30;54.50;;;;;;1800952;78;20722;-82
2023/02/24 07:47:47;;;;;;;;;;;32.20;54.00;;;;;;1791625;79;20558;-82
2023/02/24 07:50:17;;;;;;;;;;;32.20;53.60;;;;;;1847013;77;20172;-82
2023/02/24 07:52:48;;;;;;;;;;;32.20;54.00;;;;;;1837685;77;20204;-82
2023/02/24 07:55:39;;;;;;;;;;;32.20;53.20;;;;;;1825497;77;20197;-81
2023/02/24 07:58:19;;;;;;;;;;;32.20;55.00;;;;;;1825051;77;20215;-81
2023/02/24 08:00:59;;;;;;;;;;;32.20;55.20;;;;;;1789320;80;20184;-82
2023/02/24 08:03:29;;;;;;;;;;;32.10;52.80;;;;;;1822988;78;20122;-81
2023/02/24 08:06:11;;;;;;;;;;;32.10;54.30;;;;;;1831664;77;20116;-81
2023/02/24 08:08:29;;;;;;;;;;;32.10;54.50;;;;;;1828192;77;20185;-82
2023/02/24 08:11:03;;;;;;;;;;;32.00;54.10;;;;;;1830679;77;20180;-82
2023/02/24 08:13:38;;;;;;;;;;;31.90;55.20;;;;;;1830030;77;20132;-75
2023/02/24 08:16:08;;;;;;;;;;;31.90;54.80;;;;;;1830394;77;20278;-76
2023/02/24 08:18:47;;;;;;;;;;;31.90;56.40;;;;;;1789841;78;20244;-73
2023/02/24 08:21:40;;;;;;;;;;;32.00;54.10;;;;;;1822749;77;20304;-75
2023/02/24 08:24:16;;;;;;;;;;;32.00;55.00;;;;;;1835116;77;20451;-73
2023/02/24 08:26:57;;;;;;;;;;;32.00;54.20;;;;;;1825753;77;20247;-75
2023/02/24 08:29:19;;;;;;;;;;;32.00;54.00;;;;;;1868226;76;20184;-76
2023/02/24 08:31:49;;;;;;;;;;;32.10;55.90;;;;;;1812834;78;20315;-73
2023/02/24 08:34:19;;;;;;;;;;;32.10;54.20;;;;;;1823115;77;20472;-73
2023/02/24 08:36:54;;;;;;;;;;;32.10;54.10;;;;;;1834143;77;20249;-74
2023/02/24 08:39:23;;;;;;;;;;;32.10;54.30;;;;;;1804267;78;20294;-74
2023/02/24 08:41:54;;;;;;;;;;;32.10;53.80;;;;;;1803331;79;20302;-75
2023/02/24 08:44:25;;;;;;;;;;;32.10;54.20;;;;;;1833484;76;20260;-74
2023/02/24 08:46:56;;;;;;;;;;;32.10;53.80;;;;;;1835153;77;20212;-75
2023/02/24 08:49:27;;;;;;;;;;;32.10;54.50;;;;;;1836978;77;20213;-74
2023/02/24 08:52:06;;;;;;;;;;;32.00;54.10;;;;;;1836514;77;20188;-75
2023/02/24 08:54:32;;;;;;;;;;;32.00;54.60;;;;;;1823416;77;20228;-74
2023/02/24 08:57:11;;;;;;;;;;;32.00;54.20;;;;;;1833424;78;20267;-74
2023/02/24 08:59:48;;;;;;;;;;;32.00;54.20;;;;;;1831055;77;20172;-76
2023/02/24 09:02:27;;;;;;;;;;;32.00;54.30;;;;;;1884993;75;20116;-76
2023/02/24 09:04:51;;;;;;;;;;;32.00;56.40;;;;;;1876142;75;20171;-75
2023/02/24 09:07:28;;;;;;;;;;;32.10;56.30;;;;;;1878195;75;20419;-77
2023/02/24 09:09:59;;;;;;;;;;;32.00;56.60;;;;;;1877442;75;20163;-75
2023/02/24 09:15:40;;;;;;;;;;;32.00;55.40;;;;;;1882794;75;20198;-73
2023/02/24 09:18:29;;;;;;;;;;;32.00;55.20;;;;;;1867444;77;20155;-73
2023/02/24 09:23:47;;;;;;;;;;;31.90;53.90;;;;;;1838792;77;20200;-73
2023/02/24 09:26:19;;;;;;;;;;;31.80;55.00;;;;;;1838407;77;20155;-74
2023/02/24 09:28:53;;;;;;;;;;;31.80;54.30;;;;;;1835770;76;20175;-75
2023/02/24 09:31:39;;;;;;;;;;;31.70;54.60;;;;;;1837417;76;20181;-73
2023/02/24 09:33:54;;;;;;;;;;;31.60;54.10;;;;;;1831504;76;20256;-76
2023/02/24 09:36:29;;;;;;;;;;;31.60;54.00;;;;;;1838232;76;20182;-77
2023/02/24 09:44:47;;;;;;;;;;;31.60;54.00;;;;;;1825614;77;20513;-75
2023/02/24 09:47:38;;;;;;;;;;;31.60;53.80;;;;;;1832995;77;20228;-74
2023/02/24 09:50:03;;;;;;;;;;;31.60;53.60;;;;;;1827222;77;20251;-75
2023/02/24 09:52:39;;;;;;;;;;;31.50;55.30;;;;;;1832309;77;20169;-75
2023/02/24 09:55:23;;;;;;;;;;;31.50;55.90;;;;;;1830625;77;20195;-74
2023/02/24 09:58:21;;;;;;;;;;;31.40;54.60;;;;;;1883210;75;20564;-74
2023/02/24 10:00:32;;;;;;;;;;;31.30;54.70;;;;;;1873853;75;20246;-77
2023/02/24 10:03:02;;;;;;;;;;;31.30;53.60;;;;;;1878514;75;20292;-77
2023/02/24 10:05:37;;;;;;;;;;;31.30;53.70;;;;;;1878851;75;20462;-76
2023/02/24 10:08:08;;;;;;;;;;;31.30;55.70;;;;;;1887114;75;20187;-74
2023/02/24 10:10:38;;;;;;;;;;;31.30;54.80;;;;;;1877328;75;20210;-74
2023/02/24 10:13:32;;;;;;;;;;;31.30;53.70;;;;;;1878248;75;20189;-75
2023/02/24 10:18:30;;;;;;;;;;;31.20;54.30;;;;;;1883935;75;20175;-79
2023/02/24 10:21:14;;;;;;;;;;;31.20;53.90;;;;;;1879953;75;20201;-76
2023/02/24 10:23:55;;;;;;;;;;;31.20;53.30;;;;;;1892095;75;20400;-75
2023/02/24 10:26:43;;;;;;;;;;;31.10;54.10;;;;;;1879813;75;20228;-78
2023/02/24 10:29:21;;;;;;;;;;;31.10;55.30;;;;;;1874324;75;20242;-78
2023/02/24 10:31:56;;;;;;;;;;;31.10;53.90;;;;;;1875537;75;20297;-79
2023/02/24 10:34:30;;;;;;;;;;;31.10;53.30;;;;;;1888987;75;20159;-78
2023/02/24 10:36:59;;;;;;;;;;;31.10;54.30;;;;;;1801945;78;20184;-79
2023/02/24 10:39:32;;;;;;;;;;;31.00;54.00;;;;;;1819983;76;20206;-78
2023/02/24 10:42:18;;;;;;;;;;;31.00;54.20;;;;;;1808713;77;20214;-84
2023/02/24 10:44:51;;;;;;;;;;;31.00;54.20;;;;;;1811584;77;20182;-82
2023/02/24 10:47:29;;;;;;;;;;;30.90;52.70;;;;;;1806859;77;20194;-84
2023/02/24 10:49:59;;;;;;;;;;;30.90;52.80;;;;;;1812396;77;20190;-85
2023/02/24 10:55:27;;;;;;;;;;;30.80;53.80;;;;;;1774850;79;20605;-83
2023/02/24 10:57:54;;;;;;;;;;;30.80;54.10;;;;;;1780800;79;20510;-83
2023/02/24 11:00:50;;;;;;;;;;;30.70;54.50;;;;;;1779831;79;20242;-84
2023/02/24 11:03:09;;;;;;;;;;;30.70;54.40;;;;;;1783118;79;20264;-83
2023/02/24 11:06:06;;;;;;;;;;;30.70;55.00;;;;;;1784925;80;20212;-83
2023/02/24 11:08:35;;;;;;;;;;;30.60;55.80;;;;;;1783855;80;20338;-83
2023/02/24 11:11:05;;;;;;;;;;;30.60;56.10;;;;;;1811339;79;20132;-83
2023/02/24 11:19:04;;;;;;;;;;;30.50;56.60;;;;;;1807743;79;20170;-83
2023/02/24 11:21:34;;;;;;;;;;;30.50;56.20;;;;;;1814482;79;20428;-83
2023/02/24 11:24:05;;;;;;;;;;;30.40;56.50;;;;;;1818398;78;20655;-83
2023/02/24 11:26:36;;;;;;;;;;;30.40;56.70;;;;;;1817072;77;20504;-84
2023/02/24 11:29:24;;;;;;;;;;;30.40;56.90;;;;;;1818598;77;20457;-83
2023/02/24 11:32:00;;;;;;;;;;;30.40;56.90;;;;;;1815531;79;20267;-83
2023/02/24 11:34:31;;;;;;;;;;;30.30;57.00;;;;;;1805005;79;20231;-83
2023/02/24 11:37:19;;;;;;;;;;;30.20;57.00;;;;;;1816607;78;20193;-83
2023/02/24 11:39:56;;;;;;;;;;;30.20;57.00;;;;;;1785287;80;20235;-84
2023/02/24 11:42:27;;;;;;;;;;;30.20;57.30;;;;;;1836603;77;20176;-83
2023/02/24 11:44:58;;;;;;;;;;;30.20;57.70;;;;;;1846791;77;20461;-83
2023/02/24 11:47:29;;;;;;;;;;;30.10;57.50;;;;;;1808085;79;20213;-83
2023/02/24 11:50:17;;;;;;;;;;;30.10;57.60;;;;;;1810172;78;20314;-84
2023/02/24 11:52:48;;;;;;;;;;;30.10;57.10;;;;;;1819915;77;20220;-83
2023/02/24 11:55:33;;;;;;;;;;;30.10;57.20;;;;;;1820330;79;20247;-83
2023/02/24 11:58:03;;;;;;;;;;;30.10;57.20;;;;;;1819126;79;20260;-83
2023/02/24 12:00:36;;;;;;;;;;;30.00;57.20;;;;;;1806982;79;20213;-83
2023/02/24 12:03:08;;;;;;;;;;;30.00;57.40;;;;;;1816065;79;20279;-83
2023/02/24 12:05:39;;;;;;;;;;;29.90;57.50;;;;;;1785022;79;20247;-84
2023/02/24 12:08:13;;;;;;;;;;;29.90;57.40;;;;;;1784679;79;20211;-84
2023/02/24 12:10:47;;;;;;;;;;;29.90;57.40;;;;;;1809634;79;20248;-83
2023/02/24 12:13:21;;;;;;;;;;;29.80;57.60;;;;;;1813041;78;20575;-84
2023/02/24 12:15:59;;;;;;;;;;;29.80;57.90;;;;;;1784249;79;20198;-84
2023/02/24 12:18:33;;;;;;;;;;;29.80;57.60;;;;;;1781929;79;20253;-83
2023/02/24 12:21:05;;;;;;;;;;;29.70;57.60;;;;;;1804109;79;20180;-83
2023/02/24 12:23:36;;;;;;;;;;;29.70;58.00;;;;;;1818763;78;20203;-84
2023/02/24 12:26:12;;;;;;;;;;;29.70;58.00;;;;;;1811356;79;20224;-84
2023/02/24 12:29:02;;;;;;;;;;;29.60;57.90;;;;;;1808321;79;20233;-83
2023/02/24 12:31:36;;;;;;;;;;;29.60;57.80;;;;;;1810624;78;20192;-84
2023/02/24 12:34:16;;;;;;;;;;;29.50;58.00;;;;;;1810143;79;20302;-82
2023/02/24 12:36:50;;;;;;;;;;;29.50;58.00;;;;;;1813654;78;20254;-84
2023/02/24 12:39:23;;;;;;;;;;;29.50;57.90;;;;;;1789304;79;20200;-84
2023/02/24 12:42:00;;;;;;;;;;;29.50;57.90;;;;;;1808752;79;20172;-84
2023/02/24 12:44:34;;;;;;;;;;;29.40;58.50;;;;;;1809091;79;20325;-84
2023/02/24 12:47:12;;;;;;;;;;;29.40;58.50;;;;;;1809001;79;20241;-84
2023/02/24 12:49:56;;;;;;;;;;;29.40;58.50;;;;;;1822061;78;20189;-83
2023/02/24 12:52:36;;;;;;;;;;;29.30;57.90;;;;;;1804240;78;20227;-84
2023/02/24 12:55:07;;;;;;;;;;;29.30;58.10;;;;;;1808659;79;20178;-84
2023/02/24 12:57:53;;;;;;;;;;;29.30;57.90;;;;;;1806832;78;20344;-82
2023/02/24 13:00:24;;;;;;;;;;;29.30;57.80;;;;;;1808719;79;20234;-83
2023/02/24 13:02:58;;;;;;;;;;;29.30;57.60;;;;;;1761354;79;20270;-85
2023/02/24 13:05:29;;;;;;;;;;;29.30;56.30;;;;;;1833039;78;20375;-83
2023/02/24 13:08:09;;;;;;;;;;;29.20;56.90;;;;;;1828070;78;20251;-84
2023/02/24 13:10:49;;;;;;;;;;;29.20;57.50;;;;;;1808577;79;20190;-84
2023/02/24 13:13:29;;;;;;;;;;;29.20;55.90;;;;;;1827548;78;20228;-83
2023/02/24 13:16:02;;;;;;;;;;;29.20;55.20;;;;;;1830654;78;20190;-83
2023/02/24 13:18:33;;;;;;;;;;;29.20;56.00;;;;;;1808679;79;20527;-83
2023/02/24 13:21:04;;;;;;;;;;;29.20;55.70;;;;;;1808946;78;20173;-83
2023/02/24 13:23:34;;;;;;;;;;;29.10;55.10;;;;;;1804486;79;20168;-83
2023/02/24 13:26:04;;;;;;;;;;;29.10;55.30;;;;;;1806091;78;20180;-83
2023/02/24 13:28:38;;;;;;;;;;;29.10;54.90;;;;;;1828209;78;20137;-81
2023/02/24 13:31:09;;;;;;;;;;;29.10;55.80;;;;;;1804578;79;20214;-84
2023/02/24 13:33:40;;;;;;;;;;;29.00;55.00;;;;;;1796785;79;20567;-84
2023/02/24 13:36:12;;;;;;;;;;;29.00;55.30;;;;;;1807500;78;20211;-84
2023/02/24 13:38:44;;;;;;;;;;;28.90;55.30;;;;;;1807763;78;20188;-84
2023/02/24 13:41:21;;;;;;;;;;;28.90;55.30;;;;;;1841476;77;20271;-84
2023/02/24 13:44:01;;;;;;;;;;;28.90;55.90;;;;;;1834472;78;20161;-84
2023/02/24 13:46:32;;;;;;;;;;;28.90;55.30;;;;;;1835096;78;20222;-84
2023/02/24 13:49:06;;;;;;;;;;;28.80;56.40;;;;;;1841813;77;20614;-85
2023/02/24 13:51:46;;;;;;;;;;;28.80;55.80;;;;;;1812336;77;20658;-84
2023/02/24 13:54:33;;;;;;;;;;;28.70;55.40;;;;;;1837164;77;20179;-85
2023/02/24 13:57:04;;;;;;;;;;;28.70;56.10;;;;;;1834308;77;20573;-84
2023/02/24 13:59:52;;;;;;;;;;;28.60;56.30;;;;;;1845372;77;20461;-85
2023/02/24 14:02:24;;;;;;;;;;;28.60;56.60;;;;;;1805650;77;20707;-82
2023/02/24 14:04:58;;;;;;;;;;;28.60;56.70;;;;;;1843779;77;20406;-83
2023/02/24 14:07:29;;;;;;;;;;;28.50;57.30;;;;;;1815395;78;20284;-83
2023/02/24 14:10:04;;;;;;;;;;;28.50;57.60;;;;;;1837527;77;20187;-84
2023/02/24 14:12:37;;;;;;;;;;;28.40;57.80;;;;;;1825039;78;20242;-83
2023/02/24 14:15:08;;;;;;;;;;;28.40;58.00;;;;;;1836188;78;20517;-85
2023/02/24 14:17:37;;;;;;;;;;;28.40;58.20;;;;;;1836877;77;20507;-85
2023/02/24 14:20:13;;;;;;;;;;;28.30;58.40;;;;;;1839184;78;20165;-84
2023/02/24 14:22:44;;;;;;;;;;;28.30;58.40;;;;;;1843370;77;20477;-85
2023/02/24 14:25:14;;;;;;;;;;;28.30;58.70;;;;;;1905609;75;20156;-83
2023/02/24 14:27:45;;;;;;;;;;;28.20;58.90;;;;;;1895812;75;20232;-84
2023/02/24 14:30:22;;;;;;;;;;;28.20;59.10;;;;;;1877986;75;20234;-84
2023/02/24 14:32:52;;;;;;;;;;;28.10;59.10;;;;;;1885400;76;20320;-84
2023/02/24 14:35:29;;;;;;;;;;;28.10;59.00;;;;;;1872398;75;20229;-84
2023/02/24 14:37:59;;;;;;;;;;;28.00;59.10;;;;;;1870989;75;20200;-84
2023/02/24 14:40:30;;;;;;;;;;;28.00;59.20;;;;;;1857031;76;20130;-83
2023/02/24 14:43:00;;;;;;;;;;;27.90;59.20;;;;;;1818236;79;20256;-84
2023/02/24 14:45:32;;;;;;;;;;;27.90;59.40;;;;;;1853420;77;20152;-84
2023/02/24 14:48:02;;;;;;;;;;;27.90;59.50;;;;;;1845999;77;20179;-83
2023/02/24 14:50:33;;;;;;;;;;;27.80;59.50;;;;;;1859108;76;20227;-84
2023/02/24 14:53:05;;;;;;;;;;;27.80;60.40;;;;;;1858703;77;20183;-84
2023/02/24 14:55:39;;;;;;;;;;;27.70;59.60;;;;;;1860338;77;20153;-84
2023/02/24 14:58:23;;;;;;;;;;;27.70;59.60;;;;;;1864801;76;20231;-85
2023/02/24 15:00:54;;;;;;;;;;;27.70;59.90;;;;;;1864221;75;20164;-85
2023/02/24 15:03:28;;;;;;;;;;;27.70;59.80;;;;;;1877404;76;20538;-85
2023/02/24 15:05:59;;;;;;;;;;;27.60;59.80;;;;;;1876336;76;20183;-84
2023/02/24 15:08:39;;;;;;;;;;;27.60;59.80;;;;;;1871276;76;20184;-85
2023/02/24 15:11:10;;;;;;;;;;;27.60;59.80;;;;;;1868494;76;20212;-83
2023/02/24 15:13:46;;;;;;;;;;;27.60;60.00;;;;;;1855926;76;20832;-83
2023/02/24 15:16:20;;;;;;;;;;;27.50;60.10;;;;;;1865734;76;20191;-83
2023/02/24 15:18:51;;;;;;;;;;;27.50;60.00;;;;;;1874450;76;20279;-84
2023/02/24 15:21:25;;;;;;;;;;;27.50;60.20;;;;;;1879664;76;20214;-85
2023/02/24 15:23:59;;;;;;;;;;;27.40;60.10;;;;;;1867559;76;20195;-83
2023/02/24 15:26:35;;;;;;;;;;;27.40;60.40;;;;;;1870551;76;20234;-82
2023/02/24 15:29:25;;;;;;;;;;;27.40;60.50;;;;;;1870706;76;20202;-83
2023/02/24 15:31:56;;;;;;;;;;;27.30;60.50;;;;;;1873850;76;20223;-84
2023/02/24 15:34:27;;;;;;;;;;;27.30;60.50;;;;;;1883458;76;20217;-85